Terminal Aerodrome Forecast
Issued by NWS Wilmington, OH

Current Version | Previous Version | Text Only | Print | Product List | Glossary Off
Versions: 1 2 3 4 5 6 7 8 9 10 11 12 13 14 15 16 17 18 19

450
FTUS41 KILN 240542
TAFILN
TAF
KILN 240542Z 2406/2506 16008KT P6SM BKN080
     FM241000 18009KT P6SM SCT080 BKN200 WS020/21040KT
     FM241300 19012G19KT P6SM SCT050
     FM241600 19018G28KT P6SM SCT050
     FM250000 19012G20KT P6SM -SHRA VCTS OVC050CB=

USA.gov is the U.S. government's official web portal to all federal, state and local government web resources and services.